Time;durP1;ratioP1;P1;durP2;ratioP2;P2;SDS_P1;SDS_P2;PMS_P1;PMS_P2;Temp;Humidity;BMP_temperature;BMP_pressure;BME280_temperature;BME280_humidity;BME280_pressure;Samples;Min_cycle;Max_cycle;Signal;HPM_P1;HPM_P2
2022/10/24 00:01:41;;;;;;;2.55;1.40;;;16.10;99.90;;;;;;5071162;28;20032;-41
2022/10/24 00:04:08;;;;;;;4.93;1.98;;;16.10;99.90;;;;;;5064760;28;20013;-41
2022/10/24 00:06:33;;;;;;;5.03;1.83;;;16.10;99.90;;;;;;5067718;28;20032;-40
2022/10/24 00:08:59;;;;;;;3.17;1.60;;;16.00;99.90;;;;;;5063686;28;20031;-40
2022/10/24 00:11:27;;;;;;;3.05;1.60;;;16.00;99.90;;;;;;5064085;28;20517;-39
2022/10/24 00:13:54;;;;;;;3.42;1.77;;;16.00;99.90;;;;;;5083521;28;20462;-41
2022/10/24 00:16:19;;;;;;;4.72;1.85;;;16.00;99.90;;;;;;5071818;28;20127;-40
2022/10/24 00:18:45;;;;;;;3.67;1.80;;;16.00;99.90;;;;;;5077456;28;20031;-40
2022/10/24 00:21:11;;;;;;;3.75;1.73;;;16.00;99.90;;;;;;5062313;28;20119;-40
2022/10/24 00:23:39;;;;;;;3.72;1.92;;;16.00;99.90;;;;;;5078841;28;20029;-39
2022/10/24 00:26:05;;;;;;;3.58;1.70;;;15.90;99.90;;;;;;5063619;28;20029;-41
2022/10/24 00:28:33;;;;;;;3.08;1.70;;;15.90;99.90;;;;;;5077710;28;20087;-40
2022/10/24 00:31:00;;;;;;;3.50;1.60;;;15.90;99.90;;;;;;5062906;28;20017;-40
2022/10/24 00:33:26;;;;;;;3.63;1.67;;;15.90;99.90;;;;;;5074508;28;20115;-41
2022/10/24 00:35:54;;;;;;;6.28;3.00;;;15.80;99.90;;;;;;5072391;28;20766;-40
2022/10/24 00:38:20;;;;;;;3.40;1.90;;;15.70;99.90;;;;;;5071842;28;20038;-40
2022/10/24 00:40:45;;;;;;;3.55;1.70;;;15.70;99.90;;;;;;5073870;28;20024;-40
2022/10/24 00:43:23;;;;;;;2.65;1.35;;;15.70;99.90;;;;;;5066229;28;20046;-39
2022/10/24 00:45:56;;;;;;;2.20;1.42;;;15.70;99.90;;;;;;5080502;28;20025;-40
2022/10/24 00:48:31;;;;;;;4.20;1.95;;;15.70;99.90;;;;;;5076375;28;20024;-39
2022/10/24 00:51:04;;;;;;;7.13;1.73;;;15.70;99.90;;;;;;5066047;28;20040;-41
2022/10/24 00:53:32;;;;;;;4.32;1.63;;;15.70;99.90;;;;;;5066547;28;20025;-40
2022/10/24 00:56:01;;;;;;;2.70;1.60;;;15.80;99.90;;;;;;5074979;28;20737;-40
2022/10/24 00:58:29;;;;;;;4.57;1.70;;;15.80;99.90;;;;;;5067070;28;20016;-40
2022/10/24 01:00:55;;;;;;;3.30;1.45;;;15.90;99.90;;;;;;5076845;28;20538;-41
2022/10/24 01:03:21;;;;;;;5.57;1.95;;;15.90;99.90;;;;;;5073341;28;20024;-40
2022/10/24 01:06:22;;;;;;;3.45;1.40;;;16.00;99.90;;;;;;5078796;28;20032;-39
2022/10/24 01:09:08;;;;;;;4.32;2.03;;;16.00;99.90;;;;;;5066935;28;20408;-41
2022/10/24 01:11:49;;;;;;;4.32;1.83;;;16.00;99.90;;;;;;5082314;28;20054;-40
2022/10/24 01:14:20;;;;;;;6.55;1.70;;;16.00;99.90;;;;;;5069829;28;20124;-41
2022/10/24 01:17:03;;;;;;;5.95;1.77;;;16.00;99.90;;;;;;5067712;28;20036;-38
2022/10/24 01:20:05;;;;;;;3.67;1.90;;;16.10;99.90;;;;;;5082406;28;20032;-41
2022/10/24 01:22:46;;;;;;;5.95;1.50;;;16.10;99.90;;;;;;5078393;28;20047;-40
2022/10/24 01:25:33;;;;;;;2.90;1.48;;;16.10;99.90;;;;;;5081226;28;20024;-40
2022/10/24 01:28:27;;;;;;;4.00;1.60;;;16.10;99.90;;;;;;5066925;28;20925;-40
2022/10/24 01:31:20;;;;;;;3.70;1.70;;;16.20;99.90;;;;;;5083084;28;20120;-40
2022/10/24 01:33:52;;;;;;;7.15;2.00;;;16.20;99.90;;;;;;5076695;28;20059;-40
2022/10/24 01:36:40;;;;;;;4.15;1.52;;;16.30;99.90;;;;;;5085458;28;20058;-39
2022/10/24 01:39:12;;;;;;;2.75;1.67;;;16.40;99.90;;;;;;5084456;28;20016;-38
2022/10/24 01:41:40;;;;;;;5.22;2.00;;;16.40;99.90;;;;;;5086642;28;20031;-40
2022/10/24 01:44:14;;;;;;;3.60;1.55;;;16.40;99.90;;;;;;5085655;28;20115;-41
2022/10/24 01:46:45;;;;;;;4.00;1.73;;;16.40;99.90;;;;;;5083633;28;20568;-40
2022/10/24 01:49:16;;;;;;;4.65;1.70;;;16.30;99.90;;;;;;5071053;28;20028;-41
2022/10/24 01:51:44;;;;;;;7.03;1.80;;;16.30;99.90;;;;;;5074790;28;20032;-41
2022/10/24 01:54:11;;;;;;;3.95;2.05;;;16.20;99.90;;;;;;5086267;28;20348;-40
2022/10/24 01:56:37;;;;;;;3.08;1.60;;;16.20;99.90;;;;;;5077867;28;20031;-39
2022/10/24 01:59:27;;;;;;;3.40;1.90;;;16.30;99.90;;;;;;5085652;28;20024;-40
2022/10/24 02:02:03;;;;;;;3.55;1.80;;;16.20;99.90;;;;;;5081693;28;20111;-40
2022/10/24 02:04:31;;;;;;;4.60;1.80;;;16.30;99.90;;;;;;5085449;28;20028;-41
2022/10/24 02:07:00;;;;;;;7.13;1.83;;;16.20;99.90;;;;;;5083804;28;20016;-39
2022/10/24 02:09:27;;;;;;;3.72;1.80;;;16.20;99.90;;;;;;5085857;28;20136;-39
2022/10/24 02:11:55;;;;;;;3.80;1.80;;;16.20;99.90;;;;;;5082372;28;20028;-37
2022/10/24 02:14:32;;;;;;;5.95;2.08;;;16.20;99.90;;;;;;5084798;28;20458;-40
2022/10/24 02:16:58;;;;;;;4.68;1.60;;;16.20;99.90;;;;;;5085233;28;20233;-38
2022/10/24 02:19:24;;;;;;;4.95;1.90;;;16.20;99.90;;;;;;5085725;28;20024;-39
2022/10/24 02:21:54;;;;;;;3.88;1.95;;;16.20;99.90;;;;;;5080383;28;20541;-40
2022/10/24 02:24:35;;;;;;;6.07;2.75;;;16.30;99.90;;;;;;5073431;28;20033;-40
2022/10/24 02:27:30;;;;;;;3.65;2.03;;;16.20;99.90;;;;;;5070520;28;20039;-40
2022/10/24 02:30:01;;;;;;;3.30;2.00;;;16.30;99.90;;;;;;5072801;28;20032;-40
2022/10/24 02:32:31;;;;;;;3.75;1.70;;;16.30;99.90;;;;;;5076063;28;20078;-40
2022/10/24 02:34:58;;;;;;;5.45;1.95;;;16.30;99.90;;;;;;5075117;28;20016;-40
2022/10/24 02:37:32;;;;;;;3.85;1.77;;;16.30;99.90;;;;;;5077572;28;20052;-40
2022/10/24 02:40:01;;;;;;;4.55;1.70;;;16.30;99.90;;;;;;5084792;28;20024;-39
2022/10/24 02:42:28;;;;;;;5.53;1.75;;;16.30;99.90;;;;;;5076910;28;20021;-39
2022/10/24 02:44:57;;;;;;;3.92;1.67;;;16.30;99.90;;;;;;5085698;28;20027;-39
2022/10/24 02:47:25;;;;;;;4.22;1.70;;;16.30;99.90;;;;;;5077956;28;20031;-39
2022/10/24 02:49:51;;;;;;;4.88;1.88;;;16.30;99.90;;;;;;5084475;28;20056;-39
2022/10/24 02:52:17;;;;;;;3.05;1.50;;;16.30;99.90;;;;;;5083035;28;20150;-40
2022/10/24 02:54:43;;;;;;;2.05;1.38;;;16.30;99.90;;;;;;5085259;28;20115;-40
2022/10/24 02:57:08;;;;;;;4.75;1.60;;;16.30;99.90;;;;;;5081892;28;20121;-39
2022/10/24 02:59:34;;;;;;;3.83;1.77;;;16.30;99.90;;;;;;5083197;28;20468;-38
2022/10/24 03:01:59;;;;;;;2.65;1.58;;;16.30;99.90;;;;;;5084198;28;20032;-40
2022/10/24 03:04:27;;;;;;;5.32;1.35;;;16.30;99.90;;;;;;5082789;28;20142;-40
2022/10/24 03:06:53;;;;;;;4.82;2.13;;;16.30;99.90;;;;;;5082512;28;20031;-41
2022/10/24 03:09:19;;;;;;;3.15;1.88;;;16.30;99.90;;;;;;5083174;28;20028;-40
2022/10/24 03:11:44;;;;;;;1.83;1.30;;;16.30;99.90;;;;;;5083260;28;20675;-40
2022/10/24 03:14:10;;;;;;;5.60;1.80;;;16.30;99.90;;;;;;5082024;28;20032;-39
2022/10/24 03:16:35;;;;;;;3.80;1.67;;;16.30;99.90;;;;;;5084695;28;20127;-38
2022/10/24 03:19:01;;;;;;;4.55;1.60;;;16.30;99.90;;;;;;5074878;28;20438;-39
2022/10/24 03:21:26;;;;;;;4.20;1.65;;;16.30;99.90;;;;;;5084345;28;20026;-39
2022/10/24 03:23:52;;;;;;;2.85;1.40;;;16.30;99.90;;;;;;5068355;28;20064;-40
2022/10/24 03:26:17;;;;;;;4.72;1.70;;;16.30;99.90;;;;;;5069050;28;20033;-41
2022/10/24 03:28:43;;;;;;;3.75;1.30;;;16.30;99.90;;;;;;5067835;28;20020;-40
2022/10/24 03:31:09;;;;;;;3.53;1.42;;;16.30;99.90;;;;;;5067837;28;20828;-41
2022/10/24 03:33:34;;;;;;;1.67;0.95;;;16.30;99.90;;;;;;5068184;28;20043;-41
2022/10/24 03:36:00;;;;;;;2.72;1.23;;;16.20;99.90;;;;;;5068245;28;20526;-40
2022/10/24 03:38:26;;;;;;;1.60;1.20;;;16.20;99.90;;;;;;5066869;28;20024;-41
2022/10/24 03:40:52;;;;;;;2.58;1.27;;;16.20;99.90;;;;;;5073543;28;20625;-39
2022/10/24 03:43:18;;;;;;;3.97;1.52;;;16.20;99.90;;;;;;5073834;28;20103;-39
2022/10/24 03:45:44;;;;;;;3.65;1.70;;;16.20;99.90;;;;;;5067988;28;20525;-40
2022/10/24 03:48:10;;;;;;;5.20;1.70;;;16.20;99.90;;;;;;5063478;28;20028;-38
2022/10/24 03:50:38;;;;;;;4.45;1.13;;;16.20;99.90;;;;;;5078728;28;20028;-41
2022/10/24 03:53:04;;;;;;;3.17;1.25;;;16.30;99.90;;;;;;5063711;28;20023;-38
2022/10/24 03:55:30;;;;;;;3.25;1.40;;;16.20;99.90;;;;;;5079403;28;20032;-40
2022/10/24 03:57:55;;;;;;;2.80;1.15;;;16.30;99.90;;;;;;5070760;28;20059;-40
2022/10/24 04:00:21;;;;;;;2.17;1.10;;;16.30;99.90;;;;;;5078726;28;20024;-41
2022/10/24 04:02:49;;;;;;;2.33;1.05;;;16.30;99.90;;;;;;5083090;28;20050;-40
2022/10/24 04:05:15;;;;;;;2.40;1.23;;;16.30;99.90;;;;;;5074159;28;20063;-40
2022/10/24 04:07:40;;;;;;;3.42;1.15;;;16.30;99.90;;;;;;5083404;28;20748;-39
2022/10/24 04:10:06;;;;;;;3.60;1.20;;;16.30;99.90;;;;;;5076491;28;20024;-39
2022/10/24 04:12:33;;;;;;;2.97;1.50;;;16.30;99.90;;;;;;5082571;28;20031;-39
2022/10/24 04:14:58;;;;;;;4.27;1.30;;;16.30;99.90;;;;;;5081389;28;20032;-39
2022/10/24 04:17:24;;;;;;;2.90;1.00;;;16.30;99.90;;;;;;5082000;28;20081;-40
2022/10/24 04:19:49;;;;;;;2.17;0.85;;;16.20;99.90;;;;;;5080456;28;20024;-41
2022/10/24 04:22:15;;;;;;;2.67;1.40;;;16.30;99.90;;;;;;5073145;28;20123;-40
2022/10/24 04:24:41;;;;;;;7.82;1.10;;;16.20;99.90;;;;;;5065938;28;20451;-37
2022/10/24 04:27:07;;;;;;;5.03;1.23;;;16.30;99.90;;;;;;5083062;28;20089;-41
2022/10/24 04:29:33;;;;;;;2.17;1.10;;;16.30;99.90;;;;;;5068998;28;20028;-39
2022/10/24 04:31:59;;;;;;;2.85;0.98;;;16.20;99.90;;;;;;5079301;28;20724;-40
2022/10/24 04:34:24;;;;;;;2.47;0.90;;;16.20;99.90;;;;;;5081987;28;20028;-39
2022/10/24 04:36:53;;;;;;;3.78;1.00;;;16.20;99.90;;;;;;5079607;28;20475;-41
2022/10/24 04:39:19;;;;;;;3.35;0.90;;;16.20;99.90;;;;;;5083137;28;20020;-39
2022/10/24 04:41:45;;;;;;;4.15;1.20;;;16.10;99.90;;;;;;5079233;28;20706;-40
2022/10/24 04:44:11;;;;;;;1.73;0.80;;;16.10;99.90;;;;;;5083539;28;20031;-39
2022/10/24 04:46:36;;;;;;;4.35;1.15;;;16.00;99.90;;;;;;5081381;28;20045;-39
2022/10/24 04:49:02;;;;;;;1.65;1.00;;;16.00;99.90;;;;;;5082909;28;20024;-41
2022/10/24 04:51:28;;;;;;;2.10;1.17;;;16.00;99.90;;;;;;5082510;28;20024;-39
2022/10/24 04:53:53;;;;;;;4.25;1.40;;;16.00;99.90;;;;;;5083236;28;20573;-38
2022/10/24 04:56:19;;;;;;;5.15;1.30;;;16.00;99.90;;;;;;5080594;28;20036;-40
2022/10/24 04:58:44;;;;;;;2.63;1.27;;;16.00;99.90;;;;;;5083585;28;20659;-41
2022/10/24 05:01:10;;;;;;;3.00;1.10;;;16.00;99.90;;;;;;5080763;28;20383;-39
2022/10/24 05:03:36;;;;;;;3.33;1.58;;;16.00;99.90;;;;;;5074944;28;20023;-40
2022/10/24 05:06:01;;;;;;;2.85;1.25;;;16.00;99.90;;;;;;5081500;28;20755;-40
2022/10/24 05:08:27;;;;;;;3.13;1.30;;;16.00;99.90;;;;;;5075038;28;20558;-41
2022/10/24 05:10:52;;;;;;;3.20;1.40;;;16.00;99.90;;;;;;5082371;28;20032;-38
2022/10/24 05:13:18;;;;;;;5.60;1.50;;;16.00;99.90;;;;;;5073828;28;20020;-39
2022/10/24 05:15:44;;;;;;;2.65;1.20;;;16.00;99.90;;;;;;5082976;28;20734;-39
2022/10/24 05:18:09;;;;;;;3.03;1.20;;;16.00;99.90;;;;;;5073597;28;20571;-38
2022/10/24 05:20:35;;;;;;;1.48;1.05;;;16.00;99.90;;;;;;5083112;28;20028;-41
2022/10/24 05:23:01;;;;;;;2.70;1.17;;;16.00;99.90;;;;;;5077616;28;20095;-41
2022/10/24 05:25:26;;;;;;;3.05;1.30;;;16.00;99.90;;;;;;5075828;28;20050;-37
2022/10/24 05:27:52;;;;;;;2.15;1.17;;;16.00;99.90;;;;;;5081389;28;20044;-37
2022/10/24 05:30:18;;;;;;;3.08;1.02;;;16.00;99.90;;;;;;5081370;28;20063;-39
2022/10/24 05:32:43;;;;;;;5.45;1.13;;;16.10;99.90;;;;;;5079722;28;20040;-39
2022/10/24 05:35:09;;;;;;;3.10;1.30;;;16.10;99.90;;;;;;5079271;28;20031;-37
2022/10/24 05:37:35;;;;;;;4.68;1.63;;;16.10;99.90;;;;;;5077870;28;20020;-41
2022/10/24 05:40:01;;;;;;;5.57;1.55;;;16.20;99.90;;;;;;5075186;28;20020;-40
2022/10/24 05:42:26;;;;;;;5.57;1.50;;;16.20;99.90;;;;;;5079982;28;20024;-40
2022/10/24 05:44:52;;;;;;;3.15;1.30;;;16.20;99.90;;;;;;5074302;28;20043;-40
2022/10/24 05:47:17;;;;;;;5.03;1.30;;;16.20;99.90;;;;;;5080727;28;20028;-39
2022/10/24 05:49:46;;;;;;;4.07;0.88;;;16.20;99.90;;;;;;5081483;28;20047;-40
2022/10/24 05:52:11;;;;;;;4.00;1.10;;;16.20;99.90;;;;;;5080888;28;20107;-40
2022/10/24 05:54:39;;;;;;;4.18;1.15;;;16.20;99.90;;;;;;5080628;28;20148;-42
2022/10/24 05:57:05;;;;;;;3.70;1.40;;;16.20;99.90;;;;;;5081636;28;20129;-40
2022/10/24 05:59:31;;;;;;;3.67;1.20;;;16.20;99.90;;;;;;5070382;28;20493;-40
2022/10/24 06:01:57;;;;;;;2.88;1.30;;;16.30;99.90;;;;;;5081854;28;20024;-40
2022/10/24 06:04:22;;;;;;;3.75;1.20;;;16.20;99.90;;;;;;5075050;28;20025;-41
2022/10/24 06:06:54;;;;;;;3.97;1.30;;;16.20;99.90;;;;;;5084160;28;20030;-41
2022/10/24 06:09:19;;;;;;;3.50;1.20;;;16.30;99.90;;;;;;5076116;28;20073;-40
2022/10/24 06:11:45;;;;;;;7.43;1.40;;;16.30;99.90;;;;;;5085997;28;20020;-39
2022/10/24 06:14:11;;;;;;;6.55;1.60;;;16.30;99.90;;;;;;5077730;28;20070;-40
2022/10/24 06:16:36;;;;;;;4.53;1.30;;;16.20;99.90;;;;;;5083389;28;20032;-40
2022/10/24 06:19:08;;;;;;;4.85;1.52;;;16.20;99.90;;;;;;5081171;28;20020;-38
2022/10/24 06:21:34;;;;;;;2.92;1.20;;;16.20;99.90;;;;;;5081679;28;20955;-38
2022/10/24 06:23:59;;;;;;;3.83;1.17;;;16.20;99.90;;;;;;5083572;28;20016;-40
2022/10/24 06:26:25;;;;;;;4.15;1.27;;;16.20;99.90;;;;;;5081290;28;20028;-39
2022/10/24 06:28:51;;;;;;;4.55;1.40;;;16.10;99.90;;;;;;5085129;28;20016;-38
2022/10/24 06:31:18;;;;;;;3.95;1.13;;;16.10;99.90;;;;;;5085634;28;20059;-38
2022/10/24 06:33:43;;;;;;;3.33;1.25;;;16.10;99.90;;;;;;5085347;28;20036;-39
2022/10/24 06:36:13;;;;;;;2.70;0.95;;;16.10;99.90;;;;;;5077062;28;20040;-41
2022/10/24 06:38:39;;;;;;;5.30;1.20;;;16.20;99.90;;;;;;5082711;28;20028;-38
2022/10/24 06:41:10;;;;;;;4.25;1.10;;;16.10;99.90;;;;;;5081750;28;20546;-41
2022/10/24 06:43:37;;;;;;;6.70;1.70;;;16.20;99.90;;;;;;5085597;28;20456;-39
2022/10/24 06:46:08;;;;;;;3.58;1.48;;;16.10;99.90;;;;;;5073240;28;20484;-37
2022/10/24 06:48:35;;;;;;;3.40;1.40;;;16.10;99.90;;;;;;5084226;28;20020;-39
2022/10/24 06:51:01;;;;;;;8.13;1.60;;;16.10;99.90;;;;;;5073566;28;20032;-44
2022/10/24 06:53:26;;;;;;;2.80;1.20;;;16.10;99.90;;;;;;5084500;28;20072;-38
2022/10/24 06:55:52;;;;;;;4.97;1.48;;;16.10;99.90;;;;;;5075653;28;20032;-38
2022/10/24 06:58:17;;;;;;;4.07;1.30;;;16.10;99.90;;;;;;5081652;28;20190;-39
2022/10/24 07:00:43;;;;;;;4.60;1.50;;;16.20;99.90;;;;;;5083376;28;20028;-39
2022/10/24 07:03:13;;;;;;;4.78;1.40;;;16.10;99.90;;;;;;5067075;28;20066;-40
2022/10/24 07:05:39;;;;;;;6.80;1.42;;;16.20;99.90;;;;;;5069264;28;20183;-40
2022/10/24 07:08:05;;;;;;;4.18;1.20;;;16.20;99.90;;;;;;5085717;28;20623;-39
2022/10/24 07:10:30;;;;;;;3.45;1.30;;;16.30;99.90;;;;;;5082037;28;20032;-39
2022/10/24 07:12:56;;;;;;;3.95;1.10;;;16.30;99.90;;;;;;5074557;28;20076;-40
2022/10/24 07:15:25;;;;;;;5.13;1.40;;;16.40;99.90;;;;;;5081882;28;20150;-40
2022/10/24 07:17:50;;;;;;;4.07;1.10;;;16.40;99.90;;;;;;5072740;28;20024;-40
2022/10/24 07:20:16;;;;;;;6.07;1.60;;;16.40;99.90;;;;;;5083892;28;20035;-38
2022/10/24 07:22:44;;;;;;;3.00;1.23;;;16.40;99.90;;;;;;5079548;28;20034;-40
2022/10/24 07:25:10;;;;;;;6.35;1.60;;;16.50;99.90;;;;;;5063490;28;20055;-39
2022/10/24 07:27:35;;;;;;;6.50;1.73;;;16.50;99.90;;;;;;5077183;28;20380;-41
2022/10/24 07:30:06;;;;;;;3.05;1.40;;;16.50;99.90;;;;;;5063846;28;20036;-39
2022/10/24 07:32:32;;;;;;;7.00;1.40;;;16.60;99.90;;;;;;5076287;28;20054;-40
2022/10/24 07:34:58;;;;;;;5.78;1.70;;;16.60;99.90;;;;;;5064985;28;20029;-40
2022/10/24 07:37:23;;;;;;;5.07;1.52;;;16.60;99.90;;;;;;5073278;28;20051;-39
2022/10/24 07:39:50;;;;;;;5.38;1.58;;;16.60;99.90;;;;;;5075585;28;20052;-41
2022/10/24 07:42:18;;;;;;;8.00;1.63;;;16.60;99.90;;;;;;5080295;28;20412;-40
2022/10/24 07:44:44;;;;;;;5.35;1.60;;;16.60;99.90;;;;;;5070936;28;20039;-40
2022/10/24 07:47:10;;;;;;;5.18;1.30;;;16.60;99.90;;;;;;5075296;28;20012;-41
2022/10/24 07:49:36;;;;;;;5.95;1.15;;;16.60;99.90;;;;;;5081374;28;20475;-43
2022/10/24 07:52:02;;;;;;;5.03;1.33;;;16.70;99.90;;;;;;5079367;28;20028;-37
2022/10/24 07:54:28;;;;;;;6.38;1.50;;;16.70;99.90;;;;;;5073075;28;20024;-41
2022/10/24 07:56:54;;;;;;;3.85;1.20;;;16.80;99.90;;;;;;5064599;28;20113;-40
2022/10/24 07:59:19;;;;;;;5.43;1.38;;;16.90;99.90;;;;;;5074342;28;20020;-39
2022/10/24 08:01:45;;;;;;;5.28;1.20;;;16.90;99.90;;;;;;5078443;28;20942;-40
2022/10/24 08:04:12;;;;;;;6.20;1.50;;;16.90;99.90;;;;;;5071885;28;20864;-37
2022/10/24 08:06:39;;;;;;;3.95;1.10;;;16.80;99.90;;;;;;5083040;28;20051;-42
2022/10/24 08:09:05;;;;;;;6.28;1.48;;;16.80;99.90;;;;;;5075303;28;20024;-40
2022/10/24 08:11:31;;;;;;;4.28;1.50;;;16.80;99.90;;;;;;5083602;28;20036;-41
2022/10/24 08:14:01;;;;;;;6.03;1.40;;;16.80;99.90;;;;;;5078052;28;20032;-39
2022/10/24 08:16:26;;;;;;;6.55;1.27;;;16.80;99.90;;;;;;5080592;28;20036;-40
2022/10/24 08:18:55;;;;;;;5.18;1.10;;;16.80;99.90;;;;;;5076469;28;20417;-40
2022/10/24 08:21:21;;;;;;;6.47;1.30;;;16.90;99.90;;;;;;5079235;28;20146;-40
2022/10/24 08:23:50;;;;;;;6.18;1.48;;;17.00;99.90;;;;;;5079576;28;20123;-39
2022/10/24 08:26:17;;;;;;;3.67;1.10;;;17.00;99.90;;;;;;5066190;28;20028;-41
2022/10/24 08:28:45;;;;;;;6.63;1.50;;;17.00;99.90;;;;;;5067867;28;20468;-39
2022/10/24 08:31:14;;;;;;;3.72;1.55;;;17.00;99.90;;;;;;5077871;28;20051;-41
2022/10/24 08:33:40;;;;;;;4.32;1.38;;;17.00;99.90;;;;;;5077628;28;20776;-41
2022/10/24 08:36:21;;;;;;;4.75;1.30;;;17.00;99.90;;;;;;5076393;28;20507;-41
2022/10/24 08:38:47;;;;;;;6.38;1.50;;;17.10;99.90;;;;;;5078486;28;20028;-40
2022/10/24 08:41:21;;;;;;;5.65;1.40;;;17.10;99.90;;;;;;5074769;28;20036;-41
2022/10/24 08:43:47;;;;;;;6.18;1.25;;;17.10;99.90;;;;;;5080303;28;20016;-40
2022/10/24 08:46:35;;;;;;;5.78;1.27;;;17.20;99.90;;;;;;5072344;28;20031;-40
2022/10/24 08:49:12;;;;;;;5.53;1.23;;;17.20;99.90;;;;;;5076752;28;20036;-40
2022/10/24 08:51:44;;;;;;;4.43;1.20;;;17.20;99.90;;;;;;5078575;28;20019;-41
2022/10/24 08:54:15;;;;;;;4.82;1.17;;;17.20;99.90;;;;;;5078699;28;20040;-37
2022/10/24 08:56:41;;;;;;;4.50;1.27;;;17.30;99.90;;;;;;5070849;28;20076;-38
2022/10/24 08:59:10;;;;;;;4.40;1.00;;;17.30;99.90;;;;;;5064085;28;20100;-42
2022/10/24 09:01:56;;;;;;;4.38;1.30;;;17.40;99.90;;;;;;5080445;28;20031;-40
2022/10/24 09:04:25;;;;;;;3.95;1.40;;;17.50;99.90;;;;;;5079970;28;20491;-40
2022/10/24 09:06:52;;;;;;;5.82;0.95;;;17.50;99.90;;;;;;5073505;28;20860;-39
2022/10/24 09:09:28;;;;;;;2.90;0.93;;;17.60;99.90;;;;;;5080362;28;20024;-41
2022/10/24 09:11:55;;;;;;;1.98;0.80;;;17.70;99.90;;;;;;5079441;28;20020;-40
2022/10/24 09:14:32;;;;;;;4.40;1.10;;;17.70;99.90;;;;;;5081299;28;20036;-40
2022/10/24 09:17:19;;;;;;;5.53;1.08;;;17.70;99.90;;;;;;5076308;28;20032;-39
2022/10/24 09:20:05;;;;;;;4.97;1.33;;;17.70;99.90;;;;;;5078980;28;20081;-41
2022/10/24 09:22:33;;;;;;;4.90;1.77;;;17.60;99.90;;;;;;5074459;28;20114;-41
2022/10/24 09:25:10;;;;;;;3.42;0.90;;;17.60;99.90;;;;;;5079438;28;20024;-40
2022/10/24 09:27:38;;;;;;;3.90;1.20;;;17.60;99.90;;;;;;5072885;28;20033;-40
2022/10/24 09:30:07;;;;;;;6.07;2.00;;;17.50;99.90;;;;;;5063823;28;20024;-40
2022/10/24 09:32:34;;;;;;;4.28;1.00;;;17.50;99.90;;;;;;5069515;28;20048;-40
2022/10/24 09:35:04;;;;;;;3.97;1.10;;;17.50;99.90;;;;;;5082867;28;20085;-39
2022/10/24 09:37:43;;;;;;;5.03;1.17;;;17.50;99.90;;;;;;5071779;28;20036;-41
2022/10/24 09:40:21;;;;;;;3.85;1.00;;;17.60;99.90;;;;;;5067885;28;20028;-41
2022/10/24 09:42:57;;;;;;;3.45;0.98;;;17.80;99.90;;;;;;5079833;28;20124;-41
2022/10/24 09:45:39;;;;;;;3.78;1.05;;;17.90;99.90;;;;;;5082453;28;20030;-41
2022/10/24 09:48:21;;;;;;;6.45;1.98;;;17.90;99.90;;;;;;5082019;28;20039;-42
2022/10/24 09:50:49;;;;;;;4.05;0.90;;;18.00;99.90;;;;;;5081724;28;20027;-40
2022/10/24 09:53:56;;;;;;;3.22;1.00;;;18.10;99.90;;;;;;5076781;28;20105;-40
2022/10/24 09:56:33;;;;;;;3.08;0.95;;;18.20;99.90;;;;;;5070321;28;20032;-39
2022/10/24 09:59:19;;;;;;;3.63;0.90;;;18.30;99.90;;;;;;5077878;28;20024;-40
2022/10/24 10:01:45;;;;;;;2.47;0.80;;;18.30;99.90;;;;;;5076557;28;20024;-40
2022/10/24 10:04:16;;;;;;;7.53;1.30;;;18.20;99.90;;;;;;5083017;28;20490;-41
2022/10/24 10:06:47;;;;;;;4.72;1.30;;;18.20;99.90;;;;;;5081975;28;20086;-40
2022/10/24 10:09:25;;;;;;;5.95;1.25;;;18.20;99.90;;;;;;5078934;28;20047;-41
2022/10/24 10:11:55;;;;;;;2.30;0.75;;;18.20;99.90;;;;;;5081387;28;20135;-40
2022/10/24 10:14:24;;;;;;;2.90;0.88;;;18.20;99.90;;;;;;5078231;28;20032;-41
2022/10/24 10:17:03;;;;;;;4.35;1.00;;;18.30;99.90;;;;;;5083669;28;20463;-41
2022/10/24 10:19:35;;;;;;;4.10;1.10;;;18.30;99.90;;;;;;5083693;28;20024;-41
2022/10/24 10:22:19;;;;;;;2.00;0.90;;;18.30;99.90;;;;;;5078553;28;20094;-41
2022/10/24 10:24:45;;;;;;;3.08;0.80;;;18.30;99.90;;;;;;5080470;28;20043;-41
2022/10/24 10:27:31;;;;;;;3.08;1.10;;;18.30;99.90;;;;;;5080147;28;20025;-39
2022/10/24 10:30:12;;;;;;;3.83;1.00;;;18.40;99.90;;;;;;5072793;28;20028;-41
2022/10/24 10:32:59;;;;;;;4.28;1.17;;;18.40;99.90;;;;;;5070419;28;20522;-40
2022/10/24 10:35:51;;;;;;;3.50;0.93;;;18.40;99.90;;;;;;5069119;28;20056;-40
2022/10/24 10:38:42;;;;;;;2.80;1.17;;;18.40;99.90;;;;;;5074106;28;20036;-38
2022/10/24 10:41:46;;;;;;;3.28;1.10;;;18.30;99.90;;;;;;5064615;28;20034;-39
2022/10/24 10:44:23;;;;;;;5.45;1.02;;;18.40;99.90;;;;;;5077714;28;20530;-40
2022/10/24 10:47:25;;;;;;;3.80;1.00;;;18.40;99.90;;;;;;5066328;28;20056;-39
2022/10/24 10:49:56;;;;;;;3.25;0.90;;;18.40;99.90;;;;;;5076172;28;20032;-39
2022/10/24 10:52:29;;;;;;;3.58;1.00;;;18.30;99.90;;;;;;5066254;28;20031;-37
2022/10/24 10:55:07;;;;;;;6.00;1.13;;;18.20;99.90;;;;;;5075944;28;20416;-37
2022/10/24 10:58:00;;;;;;;4.85;1.13;;;18.20;99.90;;;;;;5083976;28;20039;-40
2022/10/24 11:00:59;;;;;;;4.32;0.88;;;18.20;99.90;;;;;;5079047;28;20126;-38
2022/10/24 11:03:36;;;;;;;3.67;1.00;;;18.30;99.90;;;;;;5081086;28;20153;-39
2022/10/24 11:06:43;;;;;;;2.78;1.10;;;18.30;99.90;;;;;;5076714;28;20043;-40
2022/10/24 11:09:22;;;;;;;2.67;0.80;;;18.40;99.90;;;;;;5071587;28;20118;-40
2022/10/24 11:12:08;;;;;;;3.70;0.93;;;18.40;99.90;;;;;;5068126;28;20029;-39
2022/10/24 11:14:49;;;;;;;2.20;0.63;;;18.40;99.90;;;;;;5074674;28;20036;-38
2022/10/24 11:17:22;;;;;;;5.82;1.00;;;18.40;99.90;;;;;;5064693;28;20040;-39
2022/10/24 11:20:07;;;;;;;6.18;1.02;;;18.50;99.90;;;;;;5074957;28;20051;-40
2022/10/24 11:22:42;;;;;;;5.80;1.25;;;18.50;99.90;;;;;;5083454;28;20039;-40
2022/10/24 11:25:32;;;;;;;4.85;0.82;;;18.50;99.90;;;;;;5075694;28;20119;-40
2022/10/24 11:28:27;;;;;;;2.72;1.02;;;18.50;99.90;;;;;;5082030;28;20379;-40
2022/10/24 11:30:58;;;;;;;3.45;0.80;;;18.50;99.90;;;;;;5074008;28;20028;-40
2022/10/24 11:33:33;;;;;;;2.85;1.00;;;18.50;99.90;;;;;;5082873;28;20024;-40
2022/10/24 11:36:07;;;;;;;4.25;0.80;;;18.50;99.90;;;;;;5080156;28;20036;-41
2022/10/24 11:38:43;;;;;;;2.42;0.80;;;18.60;99.90;;;;;;5083628;28;20471;-40
2022/10/24 11:41:32;;;;;;;3.72;0.98;;;18.60;99.90;;;;;;5078045;28;20085;-41
2022/10/24 11:44:05;;;;;;;2.53;1.13;;;18.70;99.90;;;;;;5072833;28;20032;-40
2022/10/24 11:46:40;;;;;;;3.63;1.02;;;18.70;99.90;;;;;;5077225;28;20039;-39
2022/10/24 11:49:28;;;;;;;2.53;0.88;;;18.70;99.90;;;;;;5084294;28;20781;-39
2022/10/24 11:52:03;;;;;;;4.65;1.30;;;18.70;99.90;;;;;;5075244;28;20091;-40
2022/10/24 11:54:41;;;;;;;4.13;0.90;;;18.60;99.90;;;;;;5082100;28;20138;-40
2022/10/24 11:57:19;;;;;;;3.33;0.80;;;18.50;99.90;;;;;;5077644;28;20502;-39
2022/10/24 11:59:44;;;;;;;3.83;1.13;;;18.50;99.90;;;;;;5080953;28;20024;-40
2022/10/24 12:02:48;;;;;;;3.35;0.85;;;18.50;99.90;;;;;;5081179;28;20024;-38
2022/10/24 12:05:36;;;;;;;3.50;1.08;;;18.50;99.90;;;;;;5068047;28;20082;-40
2022/10/24 12:08:21;;;;;;;2.95;0.90;;;18.40;99.90;;;;;;5075123;28;20028;-39
2022/10/24 12:11:14;;;;;;;3.33;0.90;;;18.40;99.90;;;;;;5078895;28;20028;-43
2022/10/24 12:14:15;;;;;;;2.05;0.70;;;18.40;99.90;;;;;;5079267;28;20035;-40
2022/10/24 12:16:58;;;;;;;3.50;0.88;;;18.50;99.90;;;;;;5077878;28;20043;-38
2022/10/24 12:19:26;;;;;;;3.72;0.82;;;18.60;99.90;;;;;;5079213;28;20946;-40
2022/10/24 12:21:55;;;;;;;3.28;1.00;;;18.60;99.90;;;;;;5078765;28;20027;-43
2022/10/24 12:24:37;;;;;;;3.05;0.90;;;18.60;99.90;;;;;;5080415;28;20103;-40
2022/10/24 12:27:06;;;;;;;2.13;0.68;;;18.60;99.90;;;;;;5077860;28;20088;-40
2022/10/24 12:29:34;;;;;;;2.08;0.50;;;18.70;99.90;;;;;;5080296;28;20024;-40
2022/10/24 12:32:37;;;;;;;2.17;0.80;;;18.80;99.90;;;;;;5075973;28;20036;-41
2022/10/24 12:35:26;;;;;;;2.30;0.52;;;18.90;99.90;;;;;;5078358;28;20068;-42
2022/10/24 12:37:52;;;;;;;1.48;0.55;;;18.80;99.90;;;;;;5075443;28;20511;-40
2022/10/24 12:40:57;;;;;;;1.67;0.70;;;18.90;99.90;;;;;;5080669;28;20028;-41
2022/10/24 12:43:28;;;;;;;5.25;1.17;;;18.90;99.90;;;;;;5074705;28;20033;-39
2022/10/24 12:45:55;;;;;;;2.67;0.80;;;18.80;99.90;;;;;;5083291;28;20073;-40
2022/10/24 12:48:35;;;;;;;6.47;1.02;;;18.80;99.90;;;;;;5074920;28;20040;-37
2022/10/24 12:51:36;;;;;;;0.73;0.52;;;18.80;99.90;;;;;;5082542;28;20032;-40
2022/10/24 12:54:11;;;;;;;3.05;0.98;;;18.80;99.90;;;;;;5005338;28;20733;-39
2022/10/24 12:56:48;;;;;;;3.72;0.77;;;18.70;99.90;;;;;;5068780;28;20044;-40
2022/10/24 12:59:32;;;;;;;2.90;0.90;;;18.70;99.90;;;;;;5075327;28;20132;-40
2022/10/24 13:02:25;;;;;;;2.45;0.88;;;18.60;99.90;;;;;;5076174;28;20764;-41
2022/10/24 13:05:01;;;;;;;;;;;18.60;99.90;;;;;;5079824;28;20371;-39
2022/10/24 13:07:57;;;;;;;1.85;0.73;;;18.60;99.90;;;;;;5078061;28;19908;-40
2022/10/24 13:10:47;;;;;;;1.92;0.90;;;18.50;99.90;;;;;;5077957;28;20024;-39
2022/10/24 13:13:31;;;;;;;2.70;0.70;;;18.50;99.90;;;;;;5075910;28;20037;-40